createdAt,value
2022-12-31T00:02:35.000Z,99330.2
2022-12-31T00:12:34.000Z,99320.07
2022-12-31T00:17:35.000Z,99320.07
2022-12-31T00:22:35.000Z,99318.11
2022-12-31T00:27:35.000Z,99315.18
2022-12-31T00:32:35.000Z,99306.02
2022-12-31T00:42:35.000Z,99300.3
2022-12-31T00:47:34.000Z,99300.66
2022-12-31T00:52:35.000Z,99299.79
2022-12-31T00:57:35.000Z,99294.85
2022-12-31T01:02:35.000Z,99286.54
2022-12-31T01:07:34.000Z,99284.91
2022-12-31T01:12:35.000Z,99285
2022-12-31T01:17:35.000Z,99285
2022-12-31T01:22:35.000Z,99286.08
2022-12-31T01:27:35.000Z,99286.32
2022-12-31T01:32:35.000Z,99285.01
2022-12-31T01:37:35.000Z,99285.77
2022-12-31T01:42:35.000Z,99291.72
2022-12-31T01:47:35.000Z,99284.71
2022-12-31T01:52:35.000Z,99291.82
2022-12-31T01:57:34.000Z,99287.97
2022-12-31T02:02:35.000Z,99288.46
2022-12-31T02:07:34.000Z,99285.51
2022-12-31T02:12:35.000Z,99288.97
2022-12-31T02:17:34.000Z,99285.8
2022-12-31T02:22:35.000Z,99285.77
2022-12-31T02:27:34.000Z,99282.08
2022-12-31T02:32:34.000Z,99282.08
2022-12-31T02:37:34.000Z,99286.59
2022-12-31T02:42:35.000Z,99280.62
2022-12-31T02:47:35.000Z,99289.68
2022-12-31T02:52:35.000Z,99293.57
2022-12-31T02:57:34.000Z,99293.35
2022-12-31T03:02:35.000Z,99291.29
2022-12-31T03:07:35.000Z,99294.7
2022-12-31T03:12:35.000Z,99290.47
2022-12-31T03:17:35.000Z,99295.98
2022-12-31T03:22:35.000Z,99293.06
2022-12-31T03:27:34.000Z,99300.82
2022-12-31T03:32:35.000Z,99307.49
2022-12-31T03:37:35.000Z,99297.07
2022-12-31T03:42:34.000Z,99300.53
2022-12-31T03:52:34.000Z,99298.52
2022-12-31T03:57:34.000Z,99300.12
2022-12-31T04:02:39.000Z,99300.12
2022-12-31T04:07:34.000Z,99308.04
2022-12-31T04:12:35.000Z,99303.45
2022-12-31T04:17:35.000Z,99305.06
2022-12-31T04:22:35.000Z,99316.43
2022-12-31T04:27:35.000Z,99322.44
2022-12-31T04:32:34.000Z,99327.67
2022-12-31T04:37:35.000Z,99335.19
2022-12-31T04:42:34.000Z,99341.18
2022-12-31T04:47:34.000Z,99346.93
2022-12-31T04:52:35.000Z,99347.37
2022-12-31T04:57:34.000Z,99347.2
2022-12-31T05:07:35.000Z,99351.05
2022-12-31T05:12:34.000Z,99357.27
2022-12-31T05:17:35.000Z,99370.44
2022-12-31T05:22:34.000Z,99375.59
2022-12-31T05:27:35.000Z,99385.35
2022-12-31T05:32:35.000Z,99392.12
2022-12-31T05:37:35.000Z,99392.12
2022-12-31T05:42:34.000Z,99398.11
2022-12-31T05:47:34.000Z,99407.62
2022-12-31T05:52:35.000Z,99424.74
2022-12-31T05:57:34.000Z,99438.1
2022-12-31T06:02:34.000Z,99448.87
2022-12-31T06:12:34.000Z,99456.1
2022-12-31T06:17:35.000Z,99471.65
2022-12-31T06:22:34.000Z,99480.01
2022-12-31T06:27:35.000Z,99492.82
2022-12-31T06:32:34.000Z,99506.88
2022-12-31T06:37:35.000Z,99520.19
2022-12-31T06:42:34.000Z,99527.62
2022-12-31T06:47:35.000Z,99538.59
2022-12-31T06:52:35.000Z,99538.59
2022-12-31T06:57:34.000Z,99539.09
2022-12-31T07:02:35.000Z,99536.36
2022-12-31T07:07:35.000Z,99548.8
2022-12-31T07:12:35.000Z,99554.13
2022-12-31T07:17:35.000Z,99562
2022-12-31T07:22:34.000Z,99568.28
2022-12-31T07:27:35.000Z,99580.66
2022-12-31T07:32:34.000Z,99588.51
2022-12-31T07:37:35.000Z,99597.34
2022-12-31T07:42:34.000Z,99600.79
2022-12-31T07:47:35.000Z,99608.06
2022-12-31T07:52:34.000Z,99617.98
2022-12-31T07:57:35.000Z,99617.89
2022-12-31T08:02:35.000Z,99625.18
2022-12-31T08:07:35.000Z,99625.18
2022-12-31T08:12:35.000Z,99632.76
2022-12-31T08:17:34.000Z,99634.83
2022-12-31T08:22:35.000Z,99639.06
2022-12-31T08:27:35.000Z,99643.6
2022-12-31T08:32:35.000Z,99649.05
2022-12-31T08:37:35.000Z,99648.27
2022-12-31T08:42:34.000Z,99647.79
2022-12-31T08:47:35.000Z,99648.24
2022-12-31T08:52:35.000Z,99653.37
2022-12-31T08:57:35.000Z,99656.77
2022-12-31T09:02:34.000Z,99652.37
2022-12-31T09:07:35.000Z,99666.68
2022-12-31T09:12:34.000Z,99679.71
2022-12-31T09:17:35.000Z,99675.08
2022-12-31T09:22:35.000Z,99675.08
2022-12-31T09:27:38.000Z,99683.03
2022-12-31T09:32:35.000Z,99680.44
2022-12-31T09:37:35.000Z,99679.25
2022-12-31T09:42:34.000Z,99679.15
2022-12-31T09:47:35.000Z,99681.71
2022-12-31T09:52:35.000Z,99684.71
2022-12-31T09:57:35.000Z,99707.22
2022-12-31T10:02:35.000Z,99718.7
2022-12-31T10:07:35.000Z,99724.38
2022-12-31T10:12:35.000Z,99721.16
2022-12-31T10:17:35.000Z,99721.16
2022-12-31T10:22:35.000Z,99709.66
2022-12-31T10:27:34.000Z,99714.17
2022-12-31T10:32:41.000Z,99731.81
2022-12-31T10:37:34.000Z,99754.36
2022-12-31T10:42:35.000Z,99763.24
2022-12-31T10:47:35.000Z,99776.15
2022-12-31T10:52:34.000Z,99785.31
2022-12-31T10:57:35.000Z,99791.53
2022-12-31T11:02:34.000Z,99790.45
2022-12-31T11:07:35.000Z,99796.76
2022-12-31T11:12:34.000Z,99807.44
2022-12-31T11:17:34.000Z,99802.44
2022-12-31T11:22:34.000Z,99800.89
2022-12-31T11:27:35.000Z,99793.31
2022-12-31T11:32:34.000Z,99793.31
2022-12-31T11:37:35.000Z,99792.49
2022-12-31T11:42:34.000Z,99805.71
2022-12-31T11:47:35.000Z,99836.34
2022-12-31T11:52:35.000Z,99851.57
2022-12-31T11:57:35.000Z,99855.85
2022-12-31T12:02:35.000Z,99862.87
2022-12-31T12:07:35.000Z,99870.83
2022-12-31T12:12:34.000Z,99875.1
2022-12-31T12:17:34.000Z,99879.09
2022-12-31T12:22:34.000Z,99882.56
2022-12-31T12:32:35.000Z,99880.99
2022-12-31T12:37:35.000Z,99888.41
2022-12-31T12:42:35.000Z,99899.43
2022-12-31T12:47:34.000Z,99909.93
2022-12-31T12:52:34.000Z,99911.63
2022-12-31T12:57:35.000Z,99911.69
2022-12-31T13:02:34.000Z,99919.62
2022-12-31T13:07:35.000Z,99921.57
2022-12-31T13:12:34.000Z,99928.73
2022-12-31T13:17:35.000Z,99933.49
2022-12-31T13:22:35.000Z,99924.2
2022-12-31T13:27:34.000Z,99924.2
2022-12-31T13:32:35.000Z,99925.23
2022-12-31T13:47:35.000Z,99936.29
2022-12-31T13:52:34.000Z,99946.77
2022-12-31T13:57:35.000Z,99945.87
2022-12-31T14:02:35.000Z,99936.78
2022-12-31T14:07:44.000Z,99939.49
2022-12-31T14:12:35.000Z,99928.83
2022-12-31T14:17:35.000Z,99934.92
2022-12-31T14:27:35.000Z,99949.42
2022-12-31T14:32:35.000Z,99947.15
2022-12-31T14:37:35.000Z,99947.15
2022-12-31T14:42:34.000Z,99943.21
2022-12-31T14:47:35.000Z,99945.16
2022-12-31T14:52:34.000Z,99939.86
2022-12-31T14:57:35.000Z,99939.29
2022-12-31T15:02:34.000Z,99928.91
2022-12-31T15:07:35.000Z,99933.93
2022-12-31T15:12:34.000Z,99929.05
2022-12-31T15:17:35.000Z,99925.22
2022-12-31T15:22:35.000Z,99923.05
2022-12-31T15:27:35.000Z,99933.93
2022-12-31T15:32:34.000Z,99934.64
2022-12-31T15:37:35.000Z,99933.23
2022-12-31T15:42:48.000Z,99933.57
2022-12-31T15:47:35.000Z,99933.57
2022-12-31T15:52:34.000Z,99935.48
2022-12-31T15:57:35.000Z,99944.36
2022-12-31T16:02:36.000Z,99945.76
2022-12-31T16:07:35.000Z,99938.14
2022-12-31T16:12:43.000Z,99938.42
2022-12-31T16:17:34.000Z,99940.89
2022-12-31T16:22:35.000Z,99932.5
2022-12-31T16:27:35.000Z,99930.67
2022-12-31T16:32:34.000Z,99936.86
2022-12-31T16:37:35.000Z,99946.06
2022-12-31T16:42:34.000Z,99937.61
2022-12-31T16:47:35.000Z,99932.76
2022-12-31T16:52:35.000Z,99927.61
2022-12-31T16:57:35.000Z,99919.91
2022-12-31T17:02:35.000Z,99919.91
2022-12-31T17:07:34.000Z,99921.6
2022-12-31T17:12:35.000Z,99922.34
2022-12-31T17:17:35.000Z,99921.81
2022-12-31T17:22:46.000Z,99912.62
2022-12-31T17:27:34.000Z,99911.56
2022-12-31T17:32:35.000Z,99904.97
2022-12-31T17:37:34.000Z,99913.54
2022-12-31T17:42:35.000Z,99918.7
2022-12-31T17:47:34.000Z,99909.44
2022-12-31T17:52:35.000Z,99911.13
2022-12-31T17:57:35.000Z,99906.39
2022-12-31T18:02:36.000Z,99904.25
2022-12-31T18:07:35.000Z,99901.21
2022-12-31T18:12:35.000Z,99897.68
2022-12-31T18:17:35.000Z,99897.68
2022-12-31T18:22:34.000Z,99895.56
2022-12-31T18:27:35.000Z,99890.38
2022-12-31T18:32:34.000Z,99889.49
2022-12-31T18:37:35.000Z,99883.32
2022-12-31T18:42:35.000Z,99869.94
2022-12-31T18:47:35.000Z,99868.14
2022-12-31T18:52:35.000Z,99858.97
2022-12-31T19:07:35.000Z,99838.26
2022-12-31T19:12:34.000Z,99841.5
2022-12-31T19:17:35.000Z,99837.05
2022-12-31T19:22:35.000Z,99845.41
2022-12-31T19:27:35.000Z,99838.26
2022-12-31T19:32:35.000Z,99833.57
2022-12-31T19:37:35.000Z,99825.06
2022-12-31T19:42:34.000Z,99818.28
2022-12-31T19:47:34.000Z,99805.08
2022-12-31T19:52:35.000Z,99787.41
2022-12-31T19:57:35.000Z,99784.39
2022-12-31T20:02:35.000Z,99773.76
2022-12-31T20:07:37.000Z,99765.88
2022-12-31T20:12:34.000Z,99770.19
2022-12-31T20:17:35.000Z,99770.19
2022-12-31T20:22:35.000Z,99773.95
2022-12-31T20:27:35.000Z,99770.65
2022-12-31T20:32:34.000Z,99774.63
2022-12-31T20:37:35.000Z,99771.79
2022-12-31T20:42:34.000Z,99761.77
2022-12-31T20:47:35.000Z,99752.62
2022-12-31T20:52:34.000Z,99755.37
2022-12-31T20:57:43.000Z,99761.07
2022-12-31T21:02:51.000Z,99758
2022-12-31T21:07:35.000Z,99753.72
2022-12-31T21:12:35.000Z,99735.74
2022-12-31T21:17:35.000Z,99706.55
2022-12-31T21:22:35.000Z,99698.4
2022-12-31T21:27:35.000Z,99674.73
2022-12-31T21:32:34.000Z,99674.73
2022-12-31T21:38:09.000Z,99661.55
2022-12-31T21:42:34.000Z,99659.09
2022-12-31T21:47:47.000Z,99650.25
2022-12-31T21:52:35.000Z,99651.05
2022-12-31T21:57:35.000Z,99661.78
2022-12-31T22:02:35.000Z,99649.84
2022-12-31T22:12:35.000Z,99635.47
2022-12-31T22:17:34.000Z,99629.24
2022-12-31T22:22:35.000Z,99622.19
2022-12-31T22:27:39.000Z,99622.24
2022-12-31T22:32:35.000Z,99615.68
2022-12-31T22:38:06.000Z,99616.48
2022-12-31T22:42:34.000Z,99603.09
2022-12-31T22:47:35.000Z,99593.81
2022-12-31T22:52:34.000Z,99593.81
2022-12-31T22:57:35.000Z,99579.28
2022-12-31T23:02:34.000Z,99575.4
2022-12-31T23:07:35.000Z,99571.66
2022-12-31T23:12:34.000Z,99566.19
2022-12-31T23:17:41.000Z,99561.25
2022-12-31T23:22:34.000Z,99553.56
2022-12-31T23:27:35.000Z,99543.35
2022-12-31T23:32:35.000Z,99527.23
2022-12-31T23:42:34.000Z,99513.1
2022-12-31T23:47:35.000Z,99501.59
2022-12-31T23:57:34.000Z,99504.53
